sensor_id;sensor_type;location;lat;lon;timestamp;P1;durP1;ratioP1;P2;durP2;ratioP2
3349;SDS011;1688;51.000;13.684;2023-03-17T00:00:54;1.47;;;1.37;;
3349;SDS011;1688;51.000;13.684;2023-03-17T00:03:27;1.33;;;1.23;;
3349;SDS011;1688;51.000;13.684;2023-03-17T00:06:01;0.80;;;0.70;;
3349;SDS011;1688;51.000;13.684;2023-03-17T00:08:35;3.83;;;1.30;;
3349;SDS011;1688;51.000;13.684;2023-03-17T00:11:10;1.93;;;1.50;;
3349;SDS011;1688;51.000;13.684;2023-03-17T00:13:44;4.67;;;2.50;;
3349;SDS011;1688;51.000;13.684;2023-03-17T00:16:19;20.73;;;1.50;;
3349;SDS011;1688;51.000;13.684;2023-03-17T00:18:53;1.40;;;1.30;;
3349;SDS011;1688;51.000;13.684;2023-03-17T00:21:28;3.77;;;1.20;;
3349;SDS011;1688;51.000;13.684;2023-03-17T00:24:03;3.10;;;2.43;;
3349;SDS011;1688;51.000;13.684;2023-03-17T00:26:36;1.80;;;1.47;;
3349;SDS011;1688;51.000;13.684;2023-03-17T00:29:09;3.87;;;1.70;;
3349;SDS011;1688;51.000;13.684;2023-03-17T00:31:43;2.27;;;2.03;;
3349;SDS011;1688;51.000;13.684;2023-03-17T00:34:17;1.40;;;1.20;;
3349;SDS011;1688;51.000;13.684;2023-03-17T00:36:51;3.87;;;2.83;;
3349;SDS011;1688;51.000;13.684;2023-03-17T00:39:24;3.60;;;2.03;;
3349;SDS011;1688;51.000;13.684;2023-03-17T00:41:58;1.23;;;1.13;;
3349;SDS011;1688;51.000;13.684;2023-03-17T00:44:32;4.10;;;1.90;;
3349;SDS011;1688;51.000;13.684;2023-03-17T00:47:07;1.50;;;1.27;;
3349;SDS011;1688;51.000;13.684;2023-03-17T00:49:41;9.50;;;1.90;;
3349;SDS011;1688;51.000;13.684;2023-03-17T00:52:14;4.30;;;1.00;;
3349;SDS011;1688;51.000;13.684;2023-03-17T00:54:47;2.50;;;1.73;;
3349;SDS011;1688;51.000;13.684;2023-03-17T00:57:20;1.63;;;1.53;;
3349;SDS011;1688;51.000;13.684;2023-03-17T00:59:53;1.87;;;1.47;;
3349;SDS011;1688;51.000;13.684;2023-03-17T01:02:27;3.73;;;1.70;;
3349;SDS011;1688;51.000;13.684;2023-03-17T01:05:00;1.37;;;1.27;;
3349;SDS011;1688;51.000;13.684;2023-03-17T01:07:38;1.70;;;1.40;;
3349;SDS011;1688;51.000;13.684;2023-03-17T01:10:13;1.60;;;1.50;;
3349;SDS011;1688;51.000;13.684;2023-03-17T01:12:46;4.20;;;1.80;;
3349;SDS011;1688;51.000;13.684;2023-03-17T01:15:20;4.60;;;2.70;;
3349;SDS011;1688;51.000;13.684;2023-03-17T01:17:54;2.70;;;1.47;;
3349;SDS011;1688;51.000;13.684;2023-03-17T01:20:29;3.77;;;1.50;;
3349;SDS011;1688;51.000;13.684;2023-03-17T01:23:04;0.77;;;0.70;;
3349;SDS011;1688;51.000;13.684;2023-03-17T01:25:37;1.37;;;1.27;;
3349;SDS011;1688;51.000;13.684;2023-03-17T01:28:15;4.60;;;1.47;;
3349;SDS011;1688;51.000;13.684;2023-03-17T01:30:49;1.27;;;1.17;;
3349;SDS011;1688;51.000;13.684;2023-03-17T01:33:22;1.83;;;1.00;;
3349;SDS011;1688;51.000;13.684;2023-03-17T01:35:56;3.10;;;1.53;;
3349;SDS011;1688;51.000;13.684;2023-03-17T01:38:29;1.13;;;1.03;;
3349;SDS011;1688;51.000;13.684;2023-03-17T01:41:03;1.00;;;0.90;;
3349;SDS011;1688;51.000;13.684;2023-03-17T01:43:37;1.80;;;1.63;;
3349;SDS011;1688;51.000;13.684;2023-03-17T01:46:13;1.27;;;0.60;;
3349;SDS011;1688;51.000;13.684;2023-03-17T01:48:56;2.00;;;1.80;;
3349;SDS011;1688;51.000;13.684;2023-03-17T01:51:32;2.10;;;2.00;;
3349;SDS011;1688;51.000;13.684;2023-03-17T01:54:07;4.20;;;1.43;;
3349;SDS011;1688;51.000;13.684;2023-03-17T01:56:42;1.00;;;1.00;;
3349;SDS011;1688;51.000;13.684;2023-03-17T01:59:18;1.13;;;0.90;;
3349;SDS011;1688;51.000;13.684;2023-03-17T02:01:53;3.23;;;2.53;;
3349;SDS011;1688;51.000;13.684;2023-03-17T02:04:27;1.20;;;0.90;;
3349;SDS011;1688;51.000;13.684;2023-03-17T02:07:01;2.00;;;1.33;;
3349;SDS011;1688;51.000;13.684;2023-03-17T02:09:36;1.50;;;1.40;;
3349;SDS011;1688;51.000;13.684;2023-03-17T02:12:09;1.73;;;1.00;;
3349;SDS011;1688;51.000;13.684;2023-03-17T02:14:44;2.73;;;1.93;;
3349;SDS011;1688;51.000;13.684;2023-03-17T02:17:18;1.93;;;0.83;;
3349;SDS011;1688;51.000;13.684;2023-03-17T02:19:52;1.07;;;0.97;;
3349;SDS011;1688;51.000;13.684;2023-03-17T02:22:25;1.97;;;1.60;;
3349;SDS011;1688;51.000;13.684;2023-03-17T02:24:59;1.53;;;1.27;;
3349;SDS011;1688;51.000;13.684;2023-03-17T02:27:34;1.00;;;0.90;;
3349;SDS011;1688;51.000;13.684;2023-03-17T02:30:09;1.63;;;1.10;;
3349;SDS011;1688;51.000;13.684;2023-03-17T02:32:43;1.57;;;1.37;;
3349;SDS011;1688;51.000;13.684;2023-03-17T02:35:16;1.53;;;1.20;;
3349;SDS011;1688;51.000;13.684;2023-03-17T02:37:53;2.03;;;1.83;;
3349;SDS011;1688;51.000;13.684;2023-03-17T02:40:27;4.03;;;1.03;;
3349;SDS011;1688;51.000;13.684;2023-03-17T02:43:01;1.13;;;0.90;;
3349;SDS011;1688;51.000;13.684;2023-03-17T02:45:36;2.30;;;1.60;;
3349;SDS011;1688;51.000;13.684;2023-03-17T02:48:09;1.63;;;1.13;;
3349;SDS011;1688;51.000;13.684;2023-03-17T02:50:43;1.60;;;1.50;;
3349;SDS011;1688;51.000;13.684;2023-03-17T02:53:16;4.13;;;1.03;;
3349;SDS011;1688;51.000;13.684;2023-03-17T02:55:49;1.10;;;1.00;;
3349;SDS011;1688;51.000;13.684;2023-03-17T02:58:23;1.33;;;1.23;;
3349;SDS011;1688;51.000;13.684;2023-03-17T03:00:56;1.43;;;0.80;;
3349;SDS011;1688;51.000;13.684;2023-03-17T03:03:29;4.80;;;4.30;;
3349;SDS011;1688;51.000;13.684;2023-03-17T03:06:02;1.53;;;1.07;;
3349;SDS011;1688;51.000;13.684;2023-03-17T03:08:36;4.00;;;1.53;;
3349;SDS011;1688;51.000;13.684;2023-03-17T03:11:09;1.17;;;1.03;;
3349;SDS011;1688;51.000;13.684;2023-03-17T03:13:43;2.80;;;1.63;;
3349;SDS011;1688;51.000;13.684;2023-03-17T03:16:16;5.63;;;1.27;;
3349;SDS011;1688;51.000;13.684;2023-03-17T03:18:49;1.87;;;1.70;;
3349;SDS011;1688;51.000;13.684;2023-03-17T03:21:23;3.13;;;2.47;;
3349;SDS011;1688;51.000;13.684;2023-03-17T03:23:56;2.20;;;0.93;;
3349;SDS011;1688;51.000;13.684;2023-03-17T03:26:29;2.40;;;1.90;;
3349;SDS011;1688;51.000;13.684;2023-03-17T03:29:03;0.87;;;0.87;;
3349;SDS011;1688;51.000;13.684;2023-03-17T03:31:36;1.50;;;1.27;;
3349;SDS011;1688;51.000;13.684;2023-03-17T03:34:09;1.87;;;1.10;;
3349;SDS011;1688;51.000;13.684;2023-03-17T03:36:43;2.23;;;1.63;;
3349;SDS011;1688;51.000;13.684;2023-03-17T03:39:16;5.67;;;2.50;;
3349;SDS011;1688;51.000;13.684;2023-03-17T03:41:49;2.10;;;1.30;;
3349;SDS011;1688;51.000;13.684;2023-03-17T03:44:23;2.50;;;1.20;;
3349;SDS011;1688;51.000;13.684;2023-03-17T03:46:56;1.77;;;1.67;;
3349;SDS011;1688;51.000;13.684;2023-03-17T03:49:29;3.40;;;1.27;;
3349;SDS011;1688;51.000;13.684;2023-03-17T03:52:02;5.17;;;1.23;;
3349;SDS011;1688;51.000;13.684;2023-03-17T03:54:36;2.60;;;1.23;;
3349;SDS011;1688;51.000;13.684;2023-03-17T03:57:09;1.33;;;1.23;;
3349;SDS011;1688;51.000;13.684;2023-03-17T03:59:42;2.27;;;1.40;;
3349;SDS011;1688;51.000;13.684;2023-03-17T04:02:15;4.70;;;1.50;;
3349;SDS011;1688;51.000;13.684;2023-03-17T04:04:49;0.97;;;0.87;;
3349;SDS011;1688;51.000;13.684;2023-03-17T04:07:22;2.60;;;1.17;;
3349;SDS011;1688;51.000;13.684;2023-03-17T04:09:56;3.33;;;1.60;;
3349;SDS011;1688;51.000;13.684;2023-03-17T04:12:30;1.67;;;0.93;;
3349;SDS011;1688;51.000;13.684;2023-03-17T04:15:04;6.40;;;3.80;;
3349;SDS011;1688;51.000;13.684;2023-03-17T04:17:38;1.23;;;0.90;;
3349;SDS011;1688;51.000;13.684;2023-03-17T04:20:13;1.73;;;1.10;;
3349;SDS011;1688;51.000;13.684;2023-03-17T04:22:47;2.20;;;1.23;;
3349;SDS011;1688;51.000;13.684;2023-03-17T04:25:20;2.40;;;1.67;;
3349;SDS011;1688;51.000;13.684;2023-03-17T04:27:53;0.70;;;0.60;;
3349;SDS011;1688;51.000;13.684;2023-03-17T04:30:27;1.37;;;1.27;;
3349;SDS011;1688;51.000;13.684;2023-03-17T04:33:00;1.30;;;1.00;;
3349;SDS011;1688;51.000;13.684;2023-03-17T04:35:34;1.67;;;1.57;;
3349;SDS011;1688;51.000;13.684;2023-03-17T04:38:07;1.30;;;0.90;;
3349;SDS011;1688;51.000;13.684;2023-03-17T04:40:41;2.80;;;2.50;;
3349;SDS011;1688;51.000;13.684;2023-03-17T04:43:14;1.77;;;1.67;;
3349;SDS011;1688;51.000;13.684;2023-03-17T04:45:48;2.40;;;1.43;;
3349;SDS011;1688;51.000;13.684;2023-03-17T04:48:21;0.90;;;0.70;;
3349;SDS011;1688;51.000;13.684;2023-03-17T04:50:54;2.60;;;1.47;;
3349;SDS011;1688;51.000;13.684;2023-03-17T04:53:27;1.10;;;0.80;;
3349;SDS011;1688;51.000;13.684;2023-03-17T04:56:00;12.67;;;1.77;;
3349;SDS011;1688;51.000;13.684;2023-03-17T04:58:34;2.83;;;1.13;;
3349;SDS011;1688;51.000;13.684;2023-03-17T05:01:07;2.40;;;1.70;;
3349;SDS011;1688;51.000;13.684;2023-03-17T05:03:41;3.83;;;0.90;;
3349;SDS011;1688;51.000;13.684;2023-03-17T05:06:14;1.13;;;1.03;;
3349;SDS011;1688;51.000;13.684;2023-03-17T05:08:48;4.60;;;1.77;;
3349;SDS011;1688;51.000;13.684;2023-03-17T05:11:21;1.20;;;1.10;;
3349;SDS011;1688;51.000;13.684;2023-03-17T05:13:54;2.13;;;1.20;;
3349;SDS011;1688;51.000;13.684;2023-03-17T05:16:28;10.33;;;1.80;;
3349;SDS011;1688;51.000;13.684;2023-03-17T05:19:01;2.33;;;2.13;;
3349;SDS011;1688;51.000;13.684;2023-03-17T05:21:34;1.03;;;0.80;;
3349;SDS011;1688;51.000;13.684;2023-03-17T05:24:08;1.50;;;1.27;;
3349;SDS011;1688;51.000;13.684;2023-03-17T05:26:41;7.30;;;2.33;;
3349;SDS011;1688;51.000;13.684;2023-03-17T05:29:15;1.50;;;1.30;;
3349;SDS011;1688;51.000;13.684;2023-03-17T05:31:48;3.47;;;1.63;;
3349;SDS011;1688;51.000;13.684;2023-03-17T05:34:22;1.27;;;1.00;;
3349;SDS011;1688;51.000;13.684;2023-03-17T05:36:55;0.97;;;0.83;;
3349;SDS011;1688;51.000;13.684;2023-03-17T05:39:28;2.97;;;2.50;;
3349;SDS011;1688;51.000;13.684;2023-03-17T05:42:02;1.93;;;1.57;;
3349;SDS011;1688;51.000;13.684;2023-03-17T05:44:35;1.73;;;1.63;;
3349;SDS011;1688;51.000;13.684;2023-03-17T05:47:08;1.23;;;1.13;;
3349;SDS011;1688;51.000;13.684;2023-03-17T05:49:41;14.23;;;2.70;;
3349;SDS011;1688;51.000;13.684;2023-03-17T05:52:15;2.00;;;1.90;;
3349;SDS011;1688;51.000;13.684;2023-03-17T05:54:48;2.90;;;2.60;;
3349;SDS011;1688;51.000;13.684;2023-03-17T05:57:23;2.60;;;1.90;;
3349;SDS011;1688;51.000;13.684;2023-03-17T05:59:56;5.00;;;2.40;;
3349;SDS011;1688;51.000;13.684;2023-03-17T06:02:29;5.03;;;1.93;;
3349;SDS011;1688;51.000;13.684;2023-03-17T06:05:03;1.07;;;0.97;;
3349;SDS011;1688;51.000;13.684;2023-03-17T06:07:37;1.53;;;1.30;;
3349;SDS011;1688;51.000;13.684;2023-03-17T06:10:23;2.23;;;2.10;;
3349;SDS011;1688;51.000;13.684;2023-03-17T06:12:56;8.43;;;1.77;;
3349;SDS011;1688;51.000;13.684;2023-03-17T06:15:30;2.20;;;1.17;;
3349;SDS011;1688;51.000;13.684;2023-03-17T06:18:05;2.53;;;2.33;;
3349;SDS011;1688;51.000;13.684;2023-03-17T06:20:38;2.30;;;0.90;;
3349;SDS011;1688;51.000;13.684;2023-03-17T06:23:12;2.53;;;1.67;;
3349;SDS011;1688;51.000;13.684;2023-03-17T06:25:46;3.57;;;1.40;;
3349;SDS011;1688;51.000;13.684;2023-03-17T06:28:19;3.00;;;2.23;;
3349;SDS011;1688;51.000;13.684;2023-03-17T06:30:52;2.80;;;1.47;;
3349;SDS011;1688;51.000;13.684;2023-03-17T06:33:25;1.10;;;1.00;;
3349;SDS011;1688;51.000;13.684;2023-03-17T06:35:59;6.60;;;1.47;;
3349;SDS011;1688;51.000;13.684;2023-03-17T06:38:33;4.80;;;2.57;;
3349;SDS011;1688;51.000;13.684;2023-03-17T06:41:06;4.73;;;1.47;;
3349;SDS011;1688;51.000;13.684;2023-03-17T06:43:40;2.10;;;1.47;;
3349;SDS011;1688;51.000;13.684;2023-03-17T06:46:13;1.07;;;0.97;;
3349;SDS011;1688;51.000;13.684;2023-03-17T06:48:47;5.23;;;1.60;;
3349;SDS011;1688;51.000;13.684;2023-03-17T06:51:20;1.37;;;1.27;;
3349;SDS011;1688;51.000;13.684;2023-03-17T06:53:54;3.67;;;2.60;;
3349;SDS011;1688;51.000;13.684;2023-03-17T06:56:27;2.03;;;1.17;;
3349;SDS011;1688;51.000;13.684;2023-03-17T06:59:04;5.73;;;2.37;;
3349;SDS011;1688;51.000;13.684;2023-03-17T07:01:38;5.20;;;1.17;;
3349;SDS011;1688;51.000;13.684;2023-03-17T07:04:11;2.47;;;1.47;;
3349;SDS011;1688;51.000;13.684;2023-03-17T07:06:45;8.47;;;2.10;;
3349;SDS011;1688;51.000;13.684;2023-03-17T07:09:18;1.90;;;1.43;;
3349;SDS011;1688;51.000;13.684;2023-03-17T07:11:52;3.63;;;2.60;;
3349;SDS011;1688;51.000;13.684;2023-03-17T07:14:25;1.40;;;1.10;;
3349;SDS011;1688;51.000;13.684;2023-03-17T07:16:58;1.10;;;0.80;;
3349;SDS011;1688;51.000;13.684;2023-03-17T07:19:32;1.47;;;1.20;;
3349;SDS011;1688;51.000;13.684;2023-03-17T07:22:06;1.47;;;1.37;;
3349;SDS011;1688;51.000;13.684;2023-03-17T07:24:39;10.13;;;2.20;;
3349;SDS011;1688;51.000;13.684;2023-03-17T07:27:14;3.60;;;1.90;;
3349;SDS011;1688;51.000;13.684;2023-03-17T07:29:48;1.53;;;1.43;;
3349;SDS011;1688;51.000;13.684;2023-03-17T07:32:21;1.43;;;0.90;;
3349;SDS011;1688;51.000;13.684;2023-03-17T07:34:55;2.57;;;1.97;;
3349;SDS011;1688;51.000;13.684;2023-03-17T07:37:29;7.80;;;2.00;;
3349;SDS011;1688;51.000;13.684;2023-03-17T07:40:03;1.60;;;1.50;;
3349;SDS011;1688;51.000;13.684;2023-03-17T07:42:37;3.33;;;1.73;;
3349;SDS011;1688;51.000;13.684;2023-03-17T07:45:10;2.70;;;2.00;;
3349;SDS011;1688;51.000;13.684;2023-03-17T07:47:44;4.63;;;2.67;;
3349;SDS011;1688;51.000;13.684;2023-03-17T07:50:17;1.70;;;1.47;;
3349;SDS011;1688;51.000;13.684;2023-03-17T07:52:50;3.77;;;1.90;;
3349;SDS011;1688;51.000;13.684;2023-03-17T07:55:24;2.57;;;1.70;;
3349;SDS011;1688;51.000;13.684;2023-03-17T07:57:57;1.70;;;1.30;;
3349;SDS011;1688;51.000;13.684;2023-03-17T08:00:31;1.43;;;1.30;;
3349;SDS011;1688;51.000;13.684;2023-03-17T08:03:06;0.87;;;0.83;;
3349;SDS011;1688;51.000;13.684;2023-03-17T08:05:42;3.63;;;1.63;;
3349;SDS011;1688;51.000;13.684;2023-03-17T08:08:15;2.83;;;1.60;;
3349;SDS011;1688;51.000;13.684;2023-03-17T08:10:49;2.70;;;1.80;;
3349;SDS011;1688;51.000;13.684;2023-03-17T08:13:22;5.33;;;2.87;;
3349;SDS011;1688;51.000;13.684;2023-03-17T08:15:56;2.53;;;2.23;;
3349;SDS011;1688;51.000;13.684;2023-03-17T08:18:29;4.20;;;1.70;;
3349;SDS011;1688;51.000;13.684;2023-03-17T08:21:03;8.00;;;2.17;;
3349;SDS011;1688;51.000;13.684;2023-03-17T08:23:36;2.10;;;1.97;;
3349;SDS011;1688;51.000;13.684;2023-03-17T08:26:10;2.57;;;1.50;;
3349;SDS011;1688;51.000;13.684;2023-03-17T08:28:45;3.67;;;2.40;;
3349;SDS011;1688;51.000;13.684;2023-03-17T08:31:19;1.50;;;1.10;;
3349;SDS011;1688;51.000;13.684;2023-03-17T08:33:54;3.97;;;2.03;;
3349;SDS011;1688;51.000;13.684;2023-03-17T08:36:30;3.40;;;2.07;;
3349;SDS011;1688;51.000;13.684;2023-03-17T08:39:04;3.90;;;2.13;;
3349;SDS011;1688;51.000;13.684;2023-03-17T08:41:37;4.17;;;2.67;;
3349;SDS011;1688;51.000;13.684;2023-03-17T08:44:10;3.37;;;2.77;;
3349;SDS011;1688;51.000;13.684;2023-03-17T08:46:44;2.30;;;1.30;;
3349;SDS011;1688;51.000;13.684;2023-03-17T08:49:18;2.50;;;1.37;;
3349;SDS011;1688;51.000;13.684;2023-03-17T08:51:52;3.63;;;1.90;;
3349;SDS011;1688;51.000;13.684;2023-03-17T08:54:25;4.13;;;1.83;;
3349;SDS011;1688;51.000;13.684;2023-03-17T08:56:59;8.80;;;2.43;;
3349;SDS011;1688;51.000;13.684;2023-03-17T08:59:33;1.67;;;1.53;;
3349;SDS011;1688;51.000;13.684;2023-03-17T09:02:06;4.00;;;1.47;;
3349;SDS011;1688;51.000;13.684;2023-03-17T09:04:41;3.03;;;1.90;;
3349;SDS011;1688;51.000;13.684;2023-03-17T09:07:14;3.07;;;2.23;;
3349;SDS011;1688;51.000;13.684;2023-03-17T09:09:48;4.43;;;2.87;;
3349;SDS011;1688;51.000;13.684;2023-03-17T09:12:21;2.33;;;1.27;;
3349;SDS011;1688;51.000;13.684;2023-03-17T09:14:55;4.00;;;2.40;;
3349;SDS011;1688;51.000;13.684;2023-03-17T09:17:29;5.90;;;2.27;;
3349;SDS011;1688;51.000;13.684;2023-03-17T09:20:02;2.63;;;1.80;;
3349;SDS011;1688;51.000;13.684;2023-03-17T09:22:38;1.90;;;1.50;;
3349;SDS011;1688;51.000;13.684;2023-03-17T09:25:11;4.43;;;2.70;;
3349;SDS011;1688;51.000;13.684;2023-03-17T09:27:45;3.80;;;1.93;;
3349;SDS011;1688;51.000;13.684;2023-03-17T09:30:19;3.50;;;2.07;;
3349;SDS011;1688;51.000;13.684;2023-03-17T09:32:52;2.13;;;1.97;;
3349;SDS011;1688;51.000;13.684;2023-03-17T09:35:26;4.10;;;2.37;;
3349;SDS011;1688;51.000;13.684;2023-03-17T09:38:00;2.27;;;1.93;;
3349;SDS011;1688;51.000;13.684;2023-03-17T09:43:41;3.33;;;2.23;;
3349;SDS011;1688;51.000;13.684;2023-03-17T09:49:12;6.23;;;1.97;;
3349;SDS011;1688;51.000;13.684;2023-03-17T09:51:47;3.60;;;1.90;;
3349;SDS011;1688;51.000;13.684;2023-03-17T09:54:25;1.30;;;1.10;;
3349;SDS011;1688;51.000;13.684;2023-03-17T09:57:02;6.10;;;2.43;;
3349;SDS011;1688;51.000;13.684;2023-03-17T09:59:38;5.37;;;2.43;;
3349;SDS011;1688;51.000;13.684;2023-03-17T10:02:28;3.60;;;2.90;;
3349;SDS011;1688;51.000;13.684;2023-03-17T10:05:15;1.40;;;1.30;;
3349;SDS011;1688;51.000;13.684;2023-03-17T10:08:16;2.80;;;1.20;;
3349;SDS011;1688;51.000;13.684;2023-03-17T10:11:46;3.73;;;1.90;;
3349;SDS011;1688;51.000;13.684;2023-03-17T10:16:41;4.87;;;1.90;;
3349;SDS011;1688;51.000;13.684;2023-03-17T10:19:23;4.13;;;1.93;;
3349;SDS011;1688;51.000;13.684;2023-03-17T10:21:59;2.03;;;1.60;;
3349;SDS011;1688;51.000;13.684;2023-03-17T10:24:35;2.63;;;2.43;;
3349;SDS011;1688;51.000;13.684;2023-03-17T10:27:11;3.50;;;2.10;;
3349;SDS011;1688;51.000;13.684;2023-03-17T10:29:46;1.67;;;1.50;;
3349;SDS011;1688;51.000;13.684;2023-03-17T10:32:19;2.83;;;1.60;;
3349;SDS011;1688;51.000;13.684;2023-03-17T10:34:53;1.83;;;1.10;;
3349;SDS011;1688;51.000;13.684;2023-03-17T10:37:27;2.23;;;1.30;;
3349;SDS011;1688;51.000;13.684;2023-03-17T10:40:17;8.30;;;2.00;;
3349;SDS011;1688;51.000;13.684;2023-03-17T10:42:53;1.90;;;1.40;;
3349;SDS011;1688;51.000;13.684;2023-03-17T10:45:28;2.20;;;1.87;;
3349;SDS011;1688;51.000;13.684;2023-03-17T10:48:02;2.70;;;1.40;;
3349;SDS011;1688;51.000;13.684;2023-03-17T10:50:36;5.47;;;1.30;;
3349;SDS011;1688;51.000;13.684;2023-03-17T10:53:21;1.87;;;1.27;;
3349;SDS011;1688;51.000;13.684;2023-03-17T10:58:48;5.03;;;2.00;;
3349;SDS011;1688;51.000;13.684;2023-03-17T11:04:02;2.90;;;1.67;;
3349;SDS011;1688;51.000;13.684;2023-03-17T11:06:51;3.53;;;1.93;;
3349;SDS011;1688;51.000;13.684;2023-03-17T11:09:30;4.80;;;1.93;;
3349;SDS011;1688;51.000;13.684;2023-03-17T11:12:10;3.53;;;1.63;;
3349;SDS011;1688;51.000;13.684;2023-03-17T11:14:53;2.20;;;1.50;;
3349;SDS011;1688;51.000;13.684;2023-03-17T11:25:39;5.53;;;1.87;;
3349;SDS011;1688;51.000;13.684;2023-03-17T11:28:17;3.83;;;2.70;;
3349;SDS011;1688;51.000;13.684;2023-03-17T11:36:31;13.40;;;2.30;;
3349;SDS011;1688;51.000;13.684;2023-03-17T11:41:54;2.43;;;2.23;;
3349;SDS011;1688;51.000;13.684;2023-03-17T11:44:33;4.73;;;2.17;;
3349;SDS011;1688;51.000;13.684;2023-03-17T11:49:44;5.20;;;2.00;;
3349;SDS011;1688;51.000;13.684;2023-03-17T11:52:25;3.33;;;2.17;;
3349;SDS011;1688;51.000;13.684;2023-03-17T11:55:14;3.20;;;1.40;;
3349;SDS011;1688;51.000;13.684;2023-03-17T11:58:00;4.50;;;2.73;;
3349;SDS011;1688;51.000;13.684;2023-03-17T12:00:35;6.10;;;2.80;;
3349;SDS011;1688;51.000;13.684;2023-03-17T12:03:21;4.17;;;2.77;;
3349;SDS011;1688;51.000;13.684;2023-03-17T12:06:00;3.80;;;2.50;;
3349;SDS011;1688;51.000;13.684;2023-03-17T12:08:38;5.83;;;2.47;;
3349;SDS011;1688;51.000;13.684;2023-03-17T12:11:14;4.97;;;3.40;;
3349;SDS011;1688;51.000;13.684;2023-03-17T12:14:13;5.80;;;1.90;;
3349;SDS011;1688;51.000;13.684;2023-03-17T12:16:54;6.40;;;2.40;;
3349;SDS011;1688;51.000;13.684;2023-03-17T12:20:33;3.57;;;1.80;;
3349;SDS011;1688;51.000;13.684;2023-03-17T12:22:46;3.23;;;1.73;;
3349;SDS011;1688;51.000;13.684;2023-03-17T12:25:30;3.87;;;1.73;;
3349;SDS011;1688;51.000;13.684;2023-03-17T12:30:54;4.80;;;2.90;;
3349;SDS011;1688;51.000;13.684;2023-03-17T12:33:39;14.63;;;3.27;;
3349;SDS011;1688;51.000;13.684;2023-03-17T12:36:16;2.90;;;2.13;;
3349;SDS011;1688;51.000;13.684;2023-03-17T12:38:51;3.20;;;1.80;;
3349;SDS011;1688;51.000;13.684;2023-03-17T12:44:04;2.70;;;2.00;;
3349;SDS011;1688;51.000;13.684;2023-03-17T12:46:48;2.90;;;2.33;;
3349;SDS011;1688;51.000;13.684;2023-03-17T12:49:47;6.13;;;2.30;;
3349;SDS011;1688;51.000;13.684;2023-03-17T12:55:06;2.87;;;2.50;;
3349;SDS011;1688;51.000;13.684;2023-03-17T12:57:42;2.33;;;1.90;;
3349;SDS011;1688;51.000;13.684;2023-03-17T13:00:22;7.40;;;2.60;;
3349;SDS011;1688;51.000;13.684;2023-03-17T13:05:49;2.33;;;1.90;;
3349;SDS011;1688;51.000;13.684;2023-03-17T13:08:27;4.47;;;2.80;;
3349;SDS011;1688;51.000;13.684;2023-03-17T13:13:56;5.70;;;3.20;;
3349;SDS011;1688;51.000;13.684;2023-03-17T13:16:38;4.50;;;2.63;;
3349;SDS011;1688;51.000;13.684;2023-03-17T13:19:19;2.50;;;1.70;;
3349;SDS011;1688;51.000;13.684;2023-03-17T13:24:47;7.47;;;3.87;;
3349;SDS011;1688;51.000;13.684;2023-03-17T13:29:58;2.70;;;2.00;;
3349;SDS011;1688;51.000;13.684;2023-03-17T13:32:32;4.90;;;3.27;;
3349;SDS011;1688;51.000;13.684;2023-03-17T13:35:16;7.83;;;2.60;;
3349;SDS011;1688;51.000;13.684;2023-03-17T13:38:11;3.80;;;2.50;;
3349;SDS011;1688;51.000;13.684;2023-03-17T13:48:54;8.50;;;4.30;;
3349;SDS011;1688;51.000;13.684;2023-03-17T13:51:30;5.80;;;2.30;;
3349;SDS011;1688;51.000;13.684;2023-03-17T14:02:12;5.80;;;3.10;;
3349;SDS011;1688;51.000;13.684;2023-03-17T14:04:51;7.60;;;4.03;;
3349;SDS011;1688;51.000;13.684;2023-03-17T14:07:26;3.10;;;2.60;;
3349;SDS011;1688;51.000;13.684;2023-03-17T14:10:00;3.57;;;3.23;;
3349;SDS011;1688;51.000;13.684;2023-03-17T14:12:41;4.27;;;2.97;;
3349;SDS011;1688;51.000;13.684;2023-03-17T14:18:20;5.10;;;3.27;;
3349;SDS011;1688;51.000;13.684;2023-03-17T14:21:02;7.23;;;4.30;;
3349;SDS011;1688;51.000;13.684;2023-03-17T14:23:47;9.30;;;3.00;;
3349;SDS011;1688;51.000;13.684;2023-03-17T14:26:24;6.20;;;3.57;;
3349;SDS011;1688;51.000;13.684;2023-03-17T14:28:59;5.60;;;3.60;;
3349;SDS011;1688;51.000;13.684;2023-03-17T14:31:32;4.80;;;3.33;;
3349;SDS011;1688;51.000;13.684;2023-03-17T14:34:10;10.23;;;4.60;;
3349;SDS011;1688;51.000;13.684;2023-03-17T14:36:45;5.83;;;3.60;;
3349;SDS011;1688;51.000;13.684;2023-03-17T14:39:19;5.87;;;3.77;;
3349;SDS011;1688;51.000;13.684;2023-03-17T14:42:02;6.27;;;3.30;;
3349;SDS011;1688;51.000;13.684;2023-03-17T14:44:40;5.63;;;3.30;;
3349;SDS011;1688;51.000;13.684;2023-03-17T14:47:18;8.23;;;4.50;;
3349;SDS011;1688;51.000;13.684;2023-03-17T14:49:52;5.10;;;4.50;;
3349;SDS011;1688;51.000;13.684;2023-03-17T14:52:27;9.30;;;5.30;;
3349;SDS011;1688;51.000;13.684;2023-03-17T14:55:00;9.40;;;4.07;;
3349;SDS011;1688;51.000;13.684;2023-03-17T14:57:35;3.97;;;2.93;;
3349;SDS011;1688;51.000;13.684;2023-03-17T15:03:12;5.80;;;3.50;;
3349;SDS011;1688;51.000;13.684;2023-03-17T15:05:48;6.97;;;3.97;;
3349;SDS011;1688;51.000;13.684;2023-03-17T15:11:07;6.70;;;3.27;;
3349;SDS011;1688;51.000;13.684;2023-03-17T15:13:46;4.53;;;3.47;;
3349;SDS011;1688;51.000;13.684;2023-03-17T15:16:26;5.40;;;3.97;;
3349;SDS011;1688;51.000;13.684;2023-03-17T15:19:07;7.03;;;3.57;;
3349;SDS011;1688;51.000;13.684;2023-03-17T15:21:47;7.20;;;4.37;;
3349;SDS011;1688;51.000;13.684;2023-03-17T15:24:22;5.60;;;3.80;;
3349;SDS011;1688;51.000;13.684;2023-03-17T15:26:59;8.37;;;5.00;;
3349;SDS011;1688;51.000;13.684;2023-03-17T15:29:32;12.27;;;4.97;;
3349;SDS011;1688;51.000;13.684;2023-03-17T15:32:16;8.67;;;4.83;;
3349;SDS011;1688;51.000;13.684;2023-03-17T15:34:53;7.33;;;3.33;;
3349;SDS011;1688;51.000;13.684;2023-03-17T15:37:29;4.63;;;3.40;;
3349;SDS011;1688;51.000;13.684;2023-03-17T15:40:03;6.27;;;3.93;;
3349;SDS011;1688;51.000;13.684;2023-03-17T15:42:37;6.53;;;3.50;;
3349;SDS011;1688;51.000;13.684;2023-03-17T15:45:14;7.13;;;4.63;;
3349;SDS011;1688;51.000;13.684;2023-03-17T15:47:48;5.87;;;3.73;;
3349;SDS011;1688;51.000;13.684;2023-03-17T15:50:22;7.97;;;3.50;;
3349;SDS011;1688;51.000;13.684;2023-03-17T15:52:56;6.27;;;4.53;;
3349;SDS011;1688;51.000;13.684;2023-03-17T15:55:30;8.57;;;5.20;;
3349;SDS011;1688;51.000;13.684;2023-03-17T15:58:04;6.30;;;4.90;;
3349;SDS011;1688;51.000;13.684;2023-03-17T16:00:37;10.70;;;3.90;;
3349;SDS011;1688;51.000;13.684;2023-03-17T16:03:15;7.10;;;3.20;;
3349;SDS011;1688;51.000;13.684;2023-03-17T16:05:50;13.27;;;4.07;;
3349;SDS011;1688;51.000;13.684;2023-03-17T16:08:23;10.33;;;5.03;;
3349;SDS011;1688;51.000;13.684;2023-03-17T16:10:57;10.00;;;5.33;;
3349;SDS011;1688;51.000;13.684;2023-03-17T16:13:30;5.80;;;4.67;;
3349;SDS011;1688;51.000;13.684;2023-03-17T16:16:04;11.53;;;5.13;;
3349;SDS011;1688;51.000;13.684;2023-03-17T16:18:38;8.70;;;4.17;;
3349;SDS011;1688;51.000;13.684;2023-03-17T16:21:11;13.40;;;7.07;;
3349;SDS011;1688;51.000;13.684;2023-03-17T16:23:45;8.73;;;5.33;;
3349;SDS011;1688;51.000;13.684;2023-03-17T16:26:19;21.17;;;6.73;;
3349;SDS011;1688;51.000;13.684;2023-03-17T16:28:52;17.87;;;8.40;;
3349;SDS011;1688;51.000;13.684;2023-03-17T16:31:26;22.93;;;11.43;;
3349;SDS011;1688;51.000;13.684;2023-03-17T16:34:01;6.17;;;5.57;;
3349;SDS011;1688;51.000;13.684;2023-03-17T16:36:35;15.60;;;7.23;;
3349;SDS011;1688;51.000;13.684;2023-03-17T16:39:14;10.37;;;6.70;;
3349;SDS011;1688;51.000;13.684;2023-03-17T16:41:49;13.53;;;5.13;;
3349;SDS011;1688;51.000;13.684;2023-03-17T16:44:24;11.23;;;6.13;;
3349;SDS011;1688;51.000;13.684;2023-03-17T16:46:57;13.13;;;6.53;;
3349;SDS011;1688;51.000;13.684;2023-03-17T16:49:31;13.13;;;7.10;;
3349;SDS011;1688;51.000;13.684;2023-03-17T16:52:04;12.00;;;7.73;;
3349;SDS011;1688;51.000;13.684;2023-03-17T16:54:38;18.70;;;5.60;;
3349;SDS011;1688;51.000;13.684;2023-03-17T16:57:11;7.83;;;4.40;;
3349;SDS011;1688;51.000;13.684;2023-03-17T16:59:44;7.03;;;4.67;;
3349;SDS011;1688;51.000;13.684;2023-03-17T17:02:18;5.60;;;4.30;;
3349;SDS011;1688;51.000;13.684;2023-03-17T17:04:51;6.27;;;3.67;;
3349;SDS011;1688;51.000;13.684;2023-03-17T17:07:24;7.50;;;4.93;;